Time;durP1;ratioP1;P1;durP2;ratioP2;P2;SDS_P1;SDS_P2;PMS_P1;PMS_P2;Temp;Humidity;BMP_temperature;BMP_pressure;BME280_temperature;BME280_humidity;BME280_pressure;Samples;Min_cycle;Max_cycle;Signal;HPM_P1;HPM_P2
2023/12/28 00:01:22;;;;;;;6.70;2.28;;;9.40;99.90;;;;;;5035969;28;20032;-66
2023/12/28 00:03:48;;;;;;;2.72;2.10;;;9.50;99.90;;;;;;5035739;28;20021;-66
2023/12/28 00:06:14;;;;;;;3.75;2.45;;;9.50;99.90;;;;;;5036132;28;20368;-66
2023/12/28 00:08:40;;;;;;;4.95;2.28;;;9.60;99.90;;;;;;5035771;28;20030;-65
2023/12/28 00:11:06;;;;;;;3.25;2.13;;;9.50;99.90;;;;;;5035945;28;20040;-67
2023/12/28 00:13:32;;;;;;;3.65;2.38;;;9.50;99.90;;;;;;5035808;28;20068;-67
2023/12/28 00:15:57;;;;;;;10.85;2.90;;;9.40;99.90;;;;;;5036007;28;20036;-66
2023/12/28 00:18:23;;;;;;;6.22;2.80;;;9.30;99.90;;;;;;5035703;28;20033;-66
2023/12/28 00:20:49;;;;;;;4.78;2.92;;;9.30;99.90;;;;;;5035467;28;20041;-66
2023/12/28 00:23:14;;;;;;;6.43;3.10;;;9.20;99.90;;;;;;5035704;28;20471;-66
2023/12/28 00:25:40;;;;;;;4.50;2.90;;;9.10;99.90;;;;;;5035589;28;20061;-67
2023/12/28 00:28:05;;;;;;;6.13;2.75;;;9.10;99.90;;;;;;5035602;28;20495;-66
2023/12/28 00:30:32;;;;;;;6.60;2.60;;;9.10;99.90;;;;;;5035762;28;20033;-66
2023/12/28 00:32:58;;;;;;;5.22;2.50;;;9.10;99.90;;;;;;5035485;28;20029;-66
2023/12/28 00:35:23;;;;;;;5.55;3.13;;;9.10;99.90;;;;;;5035431;28;20030;-66
2023/12/28 00:37:49;;;;;;;3.25;2.80;;;9.00;99.90;;;;;;5035092;28;20025;-66
2023/12/28 00:40:14;;;;;;;5.65;2.45;;;9.00;99.90;;;;;;5035326;28;20029;-66
2023/12/28 00:42:40;;;;;;;6.93;2.67;;;9.00;99.90;;;;;;5035467;28;20434;-66
2023/12/28 00:45:07;;;;;;;4.03;2.67;;;8.90;99.90;;;;;;5034577;28;20040;-66
2023/12/28 00:47:33;;;;;;;5.45;2.85;;;8.90;99.90;;;;;;5035393;28;20079;-66
2023/12/28 00:49:58;;;;;;;4.63;2.50;;;8.90;99.90;;;;;;5035426;28;20122;-66
2023/12/28 00:52:24;;;;;;;12.68;3.47;;;8.90;99.90;;;;;;5034742;28;20034;-66
2023/12/28 00:54:49;;;;;;;4.47;2.88;;;8.90;99.90;;;;;;5035067;28;20033;-66
2023/12/28 00:57:15;;;;;;;6.60;2.95;;;8.80;99.90;;;;;;5034915;28;20076;-66
2023/12/28 00:59:40;;;;;;;4.55;2.60;;;8.80;99.90;;;;;;5035047;28;20079;-66
2023/12/28 01:02:06;;;;;;;4.00;2.60;;;8.80;99.90;;;;;;5034962;28;20026;-68
2023/12/28 01:04:31;;;;;;;5.22;2.97;;;8.80;99.90;;;;;;5034746;28;20030;-67
2023/12/28 01:06:58;;;;;;;6.13;3.00;;;8.80;99.90;;;;;;5034973;28;20033;-66
2023/12/28 01:09:24;;;;;;;6.10;3.17;;;8.80;99.90;;;;;;5034951;28;20029;-66
2023/12/28 01:11:49;;;;;;;7.53;3.63;;;8.70;99.90;;;;;;5034652;28;20084;-66
2023/12/28 01:14:15;;;;;;;5.93;2.85;;;8.70;99.90;;;;;;5034473;28;20526;-66
2023/12/28 01:16:42;;;;;;;6.47;2.95;;;8.70;99.90;;;;;;5034794;28;20025;-66
2023/12/28 01:19:08;;;;;;;7.03;3.00;;;8.70;99.90;;;;;;5034634;28;20022;-66
2023/12/28 01:21:33;;;;;;;5.50;3.13;;;8.70;99.90;;;;;;5034412;28;20037;-66
2023/12/28 01:23:59;;;;;;;4.68;3.03;;;8.60;99.90;;;;;;5034539;28;20029;-66
2023/12/28 01:26:24;;;;;;;6.22;3.20;;;8.60;99.90;;;;;;5034525;28;20585;-66
2023/12/28 01:28:50;;;;;;;9.10;3.08;;;8.70;99.90;;;;;;5034521;28;20087;-67
2023/12/28 01:31:15;;;;;;;5.55;2.88;;;8.70;99.90;;;;;;5034547;28;20036;-66
2023/12/28 01:33:41;;;;;;;9.73;3.33;;;8.70;99.90;;;;;;5033959;28;20121;-66
2023/12/28 01:36:22;;;;;;;7.90;3.70;;;8.70;99.90;;;;;;5034477;28;20446;-67
2023/12/28 01:38:48;;;;;;;5.15;3.10;;;8.60;99.90;;;;;;5033970;28;20025;-66
2023/12/28 01:41:15;;;;;;;5.72;2.83;;;8.70;99.90;;;;;;5034372;28;20036;-66
2023/12/28 01:43:41;;;;;;;6.07;3.13;;;8.70;99.90;;;;;;5034420;28;20483;-66
2023/12/28 01:46:12;;;;;;;4.85;3.28;;;8.70;99.90;;;;;;5034141;28;20364;-66
2023/12/28 01:48:38;;;;;;;5.45;3.55;;;8.80;99.90;;;;;;5034147;28;20028;-67
2023/12/28 01:51:04;;;;;;;3.88;2.97;;;8.80;99.90;;;;;;5034159;28;20108;-66
2023/12/28 01:53:29;;;;;;;6.00;3.42;;;8.70;99.90;;;;;;5033766;28;20029;-66
2023/12/28 01:55:55;;;;;;;4.95;2.63;;;8.80;99.90;;;;;;5034067;28;20380;-66
2023/12/28 01:58:22;;;;;;;8.93;3.17;;;8.70;99.90;;;;;;5034044;28;20116;-67
2023/12/28 02:00:47;;;;;;;5.65;3.33;;;8.80;99.90;;;;;;5033980;28;20018;-66
2023/12/28 02:03:13;;;;;;;5.60;2.92;;;8.80;99.90;;;;;;5033967;28;20036;-66
2023/12/28 02:05:38;;;;;;;4.63;2.92;;;8.80;99.90;;;;;;5033602;28;20387;-67
2023/12/28 02:08:05;;;;;;;5.50;3.10;;;8.80;99.90;;;;;;5033913;28;20037;-67
2023/12/28 02:10:30;;;;;;;4.43;3.17;;;8.80;99.90;;;;;;5033944;28;20025;-66
2023/12/28 02:12:56;;;;;;;6.85;3.60;;;8.80;99.90;;;;;;5033652;28;20044;-66
2023/12/28 02:15:22;;;;;;;4.32;3.33;;;8.80;99.90;;;;;;5033440;28;20025;-66
2023/12/28 02:17:59;;;;;;;6.88;3.38;;;8.90;99.90;;;;;;5033535;28;20516;-66
2023/12/28 02:20:27;;;;;;;5.30;3.17;;;9.00;99.90;;;;;;5033408;28;20522;-67
2023/12/28 02:22:53;;;;;;;4.90;3.58;;;9.10;99.90;;;;;;5033523;28;20040;-67
2023/12/28 02:25:20;;;;;;;6.65;4.03;;;9.00;99.90;;;;;;5033644;28;20053;-67
2023/12/28 02:27:48;;;;;;;9.05;3.42;;;9.00;99.90;;;;;;5033483;28;20025;-67
2023/12/28 02:30:17;;;;;;;5.72;2.85;;;9.00;99.90;;;;;;5033387;28;20037;-67
2023/12/28 02:36:00;;;;;;;4.88;3.05;;;9.10;99.90;;;;;;5090837;28;20433;-67
2023/12/28 02:38:29;;;;;;;6.35;3.50;;;9.10;99.90;;;;;;5090784;28;20041;-67
2023/12/28 02:40:55;;;;;;;7.60;3.28;;;9.20;99.90;;;;;;5090629;28;20473;-69
2023/12/28 02:43:22;;;;;;;4.95;3.03;;;9.20;99.90;;;;;;5089625;28;20028;-66
2023/12/28 02:45:47;;;;;;;5.72;3.42;;;9.20;99.90;;;;;;5090774;28;20481;-66
2023/12/28 02:48:13;;;;;;;6.55;3.63;;;9.30;99.90;;;;;;5090735;28;20028;-67
2023/12/28 02:50:38;;;;;;;4.55;3.20;;;9.20;99.90;;;;;;5090502;28;20025;-66
2023/12/28 02:53:04;;;;;;;4.85;3.13;;;9.30;99.90;;;;;;5090649;28;20443;-67
2023/12/28 02:55:30;;;;;;;5.00;3.45;;;9.20;99.90;;;;;;5090279;28;20051;-67
2023/12/28 02:58:00;;;;;;;4.90;3.50;;;9.20;99.90;;;;;;5090531;28;20077;-66
2023/12/28 03:00:26;;;;;;;5.22;3.20;;;9.30;99.90;;;;;;5090445;28;20036;-67
2023/12/28 03:02:52;;;;;;;5.95;3.35;;;9.30;99.90;;;;;;5090176;28;20043;-67
2023/12/28 03:05:18;;;;;;;5.07;3.42;;;9.30;99.90;;;;;;5090309;28;20024;-66
2023/12/28 03:07:44;;;;;;;5.97;2.88;;;9.30;99.90;;;;;;5090322;28;20139;-67
2023/12/28 03:10:11;;;;;;;5.00;3.33;;;9.30;99.90;;;;;;5090285;28;20039;-67
2023/12/28 03:12:37;;;;;;;8.63;3.50;;;9.30;99.90;;;;;;5090072;28;20024;-68
2023/12/28 03:15:03;;;;;;;5.03;3.08;;;9.40;99.90;;;;;;5089939;28;20111;-67
2023/12/28 03:17:30;;;;;;;6.70;3.30;;;9.40;99.90;;;;;;5089906;28;20017;-67
2023/12/28 03:19:56;;;;;;;6.90;3.17;;;9.40;99.90;;;;;;5090053;28;20124;-67
2023/12/28 03:22:22;;;;;;;5.32;2.72;;;9.50;99.90;;;;;;5090041;28;20538;-67
2023/12/28 03:24:48;;;;;;;3.60;2.80;;;9.50;99.90;;;;;;5089965;28;20119;-67
2023/12/28 03:27:14;;;;;;;4.25;2.70;;;9.50;99.90;;;;;;5089842;28;20391;-67
2023/12/28 03:29:42;;;;;;;4.88;3.13;;;9.40;99.90;;;;;;5089991;28;20085;-68
2023/12/28 03:32:07;;;;;;;4.15;3.00;;;9.50;99.90;;;;;;5089685;28;20074;-67
2023/12/28 03:34:33;;;;;;;7.35;3.05;;;9.40;99.90;;;;;;5089600;28;20052;-67
2023/12/28 03:36:59;;;;;;;3.70;2.78;;;9.50;99.90;;;;;;5089795;28;20111;-66
2023/12/28 03:39:25;;;;;;;6.53;3.28;;;9.50;99.90;;;;;;5089522;28;20067;-67
2023/12/28 03:41:52;;;;;;;7.85;3.53;;;9.40;99.90;;;;;;5089683;28;20124;-67
2023/12/28 03:44:18;;;;;;;4.80;3.10;;;9.40;99.90;;;;;;5089434;28;20029;-67
2023/12/28 03:46:44;;;;;;;5.72;3.20;;;9.40;99.90;;;;;;5077195;28;20524;-67
2023/12/28 03:49:09;;;;;;;6.07;3.00;;;9.40;99.90;;;;;;5076071;28;20052;-67
2023/12/28 03:51:35;;;;;;;4.53;2.78;;;9.40;99.90;;;;;;5075984;28;20029;-68
2023/12/28 03:54:00;;;;;;;5.80;2.78;;;9.40;99.90;;;;;;5075747;28;20505;-67
2023/12/28 03:56:27;;;;;;;5.18;3.10;;;9.50;99.90;;;;;;5075726;28;20398;-67
2023/12/28 03:58:53;;;;;;;4.57;2.75;;;9.50;99.90;;;;;;5075821;28;20060;-67
2023/12/28 04:01:21;;;;;;;5.45;2.63;;;9.50;99.90;;;;;;5075431;28;20028;-67
2023/12/28 04:03:47;;;;;;;6.57;3.10;;;9.40;99.90;;;;;;5075592;28;20086;-67
2023/12/28 04:06:13;;;;;;;5.03;3.03;;;9.50;99.90;;;;;;5074500;28;20418;-67
2023/12/28 04:08:40;;;;;;;8.25;3.05;;;9.40;99.90;;;;;;5075703;28;20039;-67
2023/12/28 04:11:06;;;;;;;6.53;2.80;;;9.40;99.90;;;;;;5075448;28;20502;-66
2023/12/28 04:13:31;;;;;;;6.97;3.03;;;9.50;99.90;;;;;;5075491;28;20052;-66
2023/12/28 04:15:57;;;;;;;6.22;2.78;;;9.50;99.90;;;;;;5075365;28;20032;-67
2023/12/28 04:18:22;;;;;;;4.72;2.80;;;9.50;99.90;;;;;;5075317;28;20028;-67
2023/12/28 04:20:48;;;;;;;5.07;3.10;;;9.50;99.90;;;;;;5075172;28;20048;-66
2023/12/28 04:23:14;;;;;;;5.53;2.85;;;9.40;99.90;;;;;;5075458;28;20086;-66
2023/12/28 04:25:40;;;;;;;3.55;3.00;;;9.60;99.90;;;;;;5074306;28;20112;-66
2023/12/28 04:28:06;;;;;;;7.18;3.05;;;9.50;99.90;;;;;;5075210;28;20067;-66
2023/12/28 04:30:32;;;;;;;4.35;2.28;;;9.50;99.90;;;;;;5075287;28;20028;-66
2023/12/28 04:32:57;;;;;;;4.78;2.70;;;9.50;99.90;;;;;;5075249;28;20474;-67
2023/12/28 04:35:23;;;;;;;5.63;3.35;;;9.50;99.90;;;;;;5074796;28;20072;-66
2023/12/28 04:37:48;;;;;;;5.45;2.85;;;9.50;99.90;;;;;;5075254;28;20111;-66
2023/12/28 04:40:15;;;;;;;4.15;2.60;;;9.50;99.90;;;;;;5075183;28;20116;-65
2023/12/28 04:42:41;;;;;;;4.30;2.60;;;9.60;99.90;;;;;;5074723;28;20017;-66
2023/12/28 04:45:07;;;;;;;6.15;2.60;;;9.50;99.90;;;;;;5074993;28;20035;-67
2023/12/28 04:47:32;;;;;;;6.60;2.63;;;9.50;99.90;;;;;;5074586;28;20067;-67
2023/12/28 04:49:58;;;;;;;7.15;2.60;;;9.50;99.90;;;;;;5074886;28;20036;-66
2023/12/28 04:52:23;;;;;;;4.07;2.60;;;9.60;99.90;;;;;;5074738;28;20079;-66
2023/12/28 04:54:49;;;;;;;5.57;2.65;;;9.70;99.90;;;;;;5074626;28;20473;-66
2023/12/28 04:57:15;;;;;;;3.70;2.33;;;9.60;99.90;;;;;;5073713;28;20375;-66
2023/12/28 04:59:41;;;;;;;6.95;2.40;;;9.70;99.90;;;;;;5074492;28;20394;-66
2023/12/28 05:02:07;;;;;;;5.15;2.67;;;9.70;99.90;;;;;;5074423;28;20021;-67
2023/12/28 05:04:32;;;;;;;5.35;2.40;;;9.70;99.90;;;;;;5074522;28;20021;-66
2023/12/28 05:06:58;;;;;;;5.18;2.20;;;9.80;99.90;;;;;;5074359;28;20043;-66
2023/12/28 05:09:24;;;;;;;3.90;2.38;;;9.80;99.90;;;;;;5074301;28;20055;-66
2023/12/28 05:11:49;;;;;;;6.00;2.22;;;9.90;99.90;;;;;;5074271;28;20165;-66
2023/12/28 05:14:15;;;;;;;3.75;2.47;;;9.90;99.90;;;;;;5074269;28;20021;-67
2023/12/28 05:16:40;;;;;;;3.60;2.13;;;9.90;99.90;;;;;;5074262;28;20036;-66
2023/12/28 05:19:06;;;;;;;5.85;2.17;;;9.90;99.90;;;;;;5073968;28;20021;-68
2023/12/28 05:21:31;;;;;;;6.72;2.67;;;9.90;99.90;;;;;;5074357;28;20123;-66
2023/12/28 05:23:57;;;;;;;2.13;1.95;;;9.90;99.90;;;;;;5074321;28;20044;-66
2023/12/28 05:26:23;;;;;;;3.60;2.05;;;9.90;99.90;;;;;;5073954;28;20021;-67
2023/12/28 05:28:49;;;;;;;6.43;2.40;;;9.90;99.90;;;;;;5073938;28;20440;-67
2023/12/28 05:31:15;;;;;;;3.33;1.75;;;10.00;99.90;;;;;;5073925;28;20024;-66
2023/12/28 05:33:40;;;;;;;8.63;2.47;;;10.00;99.90;;;;;;5073751;28;20044;-66
2023/12/28 05:36:06;;;;;;;6.05;2.08;;;9.90;99.90;;;;;;5073961;28;20482;-67
2023/12/28 05:38:32;;;;;;;6.68;2.10;;;10.00;99.90;;;;;;5073994;28;20040;-66
2023/12/28 05:40:57;;;;;;;7.75;2.33;;;10.00;99.90;;;;;;5073707;28;20040;-66
2023/12/28 05:43:23;;;;;;;3.35;1.98;;;10.00;99.90;;;;;;5073883;28;20056;-66
2023/12/28 05:45:48;;;;;;;4.45;2.15;;;10.00;99.90;;;;;;5073642;28;20029;-66
2023/12/28 05:48:14;;;;;;;2.40;1.85;;;10.00;99.90;;;;;;5073622;28;20020;-67
2023/12/28 05:50:40;;;;;;;7.22;1.98;;;10.00;99.90;;;;;;5073594;28;20024;-67
2023/12/28 05:53:05;;;;;;;5.75;2.03;;;10.00;99.90;;;;;;5073521;28;20032;-67
2023/12/28 05:55:31;;;;;;;5.47;2.05;;;9.90;99.90;;;;;;5073219;28;20028;-66
2023/12/28 05:57:57;;;;;;;3.38;2.25;;;9.90;99.90;;;;;;5073634;28;20078;-67
2023/12/28 06:00:22;;;;;;;4.82;1.90;;;9.80;99.90;;;;;;5073347;28;20530;-66
2023/12/28 06:02:51;;;;;;;7.32;2.15;;;9.90;99.90;;;;;;5073559;28;20035;-66
2023/12/28 06:05:17;;;;;;;5.15;2.10;;;9.90;99.90;;;;;;5073388;28;20036;-66
2023/12/28 06:07:43;;;;;;;3.28;1.90;;;9.90;99.90;;;;;;5073340;28;20462;-66
2023/12/28 06:10:09;;;;;;;3.58;1.88;;;9.90;99.90;;;;;;5073286;28;20033;-66
2023/12/28 06:12:36;;;;;;;5.28;2.30;;;9.90;99.90;;;;;;5073120;28;20509;-66
2023/12/28 06:15:02;;;;;;;2.80;1.90;;;9.90;99.90;;;;;;5073139;28;20032;-66
2023/12/28 06:17:27;;;;;;;3.97;2.03;;;9.90;99.90;;;;;;5073408;28;20028;-66
2023/12/28 06:19:53;;;;;;;5.80;2.30;;;9.90;99.90;;;;;;5073186;28;20078;-66
2023/12/28 06:22:18;;;;;;;8.82;2.45;;;9.90;99.90;;;;;;5073349;28;20134;-67
2023/12/28 06:24:44;;;;;;;7.78;2.17;;;9.90;99.90;;;;;;5073180;28;20021;-66
2023/12/28 06:27:09;;;;;;;5.93;2.30;;;9.90;99.90;;;;;;5073311;28;20389;-66
2023/12/28 06:29:35;;;;;;;3.67;1.90;;;10.00;99.90;;;;;;5073321;28;20035;-66
2023/12/28 06:32:00;;;;;;;4.63;2.20;;;10.00;99.90;;;;;;5072999;28;20103;-66
2023/12/28 06:34:26;;;;;;;3.28;1.98;;;10.00;99.90;;;;;;5072762;28;20106;-66
2023/12/28 06:36:52;;;;;;;3.50;1.88;;;10.00;99.90;;;;;;5072987;28;20024;-66
2023/12/28 06:39:17;;;;;;;5.00;2.35;;;10.00;99.90;;;;;;5072984;28;20024;-67
2023/12/28 06:41:48;;;;;;;7.88;2.70;;;10.00;99.90;;;;;;5073022;28;20052;-67
2023/12/28 06:44:14;;;;;;;5.28;2.25;;;10.10;99.90;;;;;;5073008;28;20484;-66
2023/12/28 06:46:40;;;;;;;4.07;1.88;;;10.10;99.90;;;;;;5071523;28;20032;-66
2023/12/28 06:49:06;;;;;;;4.53;1.90;;;10.00;99.90;;;;;;5072985;28;20037;-66
2023/12/28 06:51:31;;;;;;;5.70;2.25;;;10.00;99.90;;;;;;5072619;28;20028;-67
2023/12/28 06:53:57;;;;;;;7.10;2.40;;;10.00;99.90;;;;;;5072739;28;20111;-67
2023/12/28 06:56:22;;;;;;;4.43;2.05;;;10.00;99.90;;;;;;5072935;28;20054;-67
2023/12/28 06:58:48;;;;;;;3.70;2.30;;;10.00;99.90;;;;;;5073004;28;20107;-67
2023/12/28 07:01:14;;;;;;;4.85;2.05;;;9.90;99.90;;;;;;5072947;28;20538;-67
2023/12/28 07:03:39;;;;;;;3.72;1.98;;;9.90;99.90;;;;;;5073054;28;20120;-67
2023/12/28 07:06:05;;;;;;;5.95;2.60;;;10.00;99.90;;;;;;5072837;28;20120;-67
2023/12/28 07:08:31;;;;;;;4.35;2.47;;;10.00;99.90;;;;;;5072852;28;20059;-66
2023/12/28 07:10:57;;;;;;;6.22;2.28;;;10.00;99.90;;;;;;5072677;28;20034;-66
2023/12/28 07:13:23;;;;;;;4.35;2.22;;;10.00;99.90;;;;;;5072564;28;20082;-67
2023/12/28 07:15:48;;;;;;;6.93;2.55;;;10.00;93.90;;;;;;5072664;28;20433;-67
2023/12/28 07:18:14;;;;;;;4.85;2.20;;;10.00;93.20;;;;;;5072845;28;20032;-66
2023/12/28 07:20:40;;;;;;;7.15;2.17;;;9.90;99.90;;;;;;5073288;28;20497;-67
2023/12/28 07:23:05;;;;;;;6.47;2.22;;;9.90;99.90;;;;;;5076290;28;20025;-67
2023/12/28 07:25:31;;;;;;;5.28;2.10;;;9.80;92.60;;;;;;5076229;28;20040;-67
2023/12/28 07:27:56;;;;;;;6.90;2.47;;;9.80;99.90;;;;;;5076347;28;20032;-67
2023/12/28 07:30:22;;;;;;;4.35;2.70;;;9.80;88.40;;;;;;5076414;28;20033;-66
2023/12/28 07:32:47;;;;;;;4.00;2.08;;;9.80;95.80;;;;;;5076154;28;20038;-67
2023/12/28 07:35:13;;;;;;;9.80;2.10;;;9.80;93.90;;;;;;5075873;28;20125;-67
2023/12/28 07:37:39;;;;;;;5.15;2.20;;;9.70;99.90;;;;;;5076009;28;20021;-67
2023/12/28 07:40:05;;;;;;;6.05;2.45;;;9.80;92.80;;;;;;5076155;28;20494;-67
2023/12/28 07:42:31;;;;;;;6.15;2.70;;;9.80;99.90;;;;;;5075763;28;20027;-67
2023/12/28 07:44:56;;;;;;;6.32;2.30;;;9.80;86.10;;;;;;5076100;28;20032;-67
2023/12/28 07:47:22;;;;;;;4.68;2.35;;;9.90;76.80;;;;;;5075601;28;20032;-66
2023/12/28 07:49:47;;;;;;;5.70;2.22;;;9.90;70.80;;;;;;5075860;28;20027;-67
2023/12/28 07:52:13;;;;;;;7.55;2.60;;;9.90;69.20;;;;;;5075926;28;20033;-67
2023/12/28 07:54:38;;;;;;;8.00;2.55;;;9.90;68.40;;;;;;5075867;28;20448;-68
2023/12/28 07:57:04;;;;;;;6.65;2.55;;;9.90;76.00;;;;;;5075986;28;20355;-67
2023/12/28 07:59:30;;;;;;;8.90;2.90;;;10.00;93.70;;;;;;5075649;28;20032;-67
2023/12/28 08:01:56;;;;;;;6.47;2.70;;;9.90;95.60;;;;;;5075436;28;20024;-67
2023/12/28 08:04:22;;;;;;;5.55;2.40;;;9.90;95.30;;;;;;5075587;28;20384;-67
2023/12/28 08:06:48;;;;;;;4.05;2.22;;;9.90;95.10;;;;;;5075763;28;20127;-67
2023/12/28 08:09:13;;;;;;;8.02;3.10;;;9.90;95.00;;;;;;5075326;28;20106;-66
2023/12/28 08:11:39;;;;;;;6.47;2.40;;;10.00;92.60;;;;;;5075282;28;20366;-67
2023/12/28 08:14:05;;;;;;;9.10;2.38;;;10.00;64.60;;;;;;5075684;28;20044;-68
2023/12/28 08:16:31;;;;;;;5.50;2.13;;;10.10;66.90;;;;;;5075607;28;20024;-67
2023/12/28 08:18:56;;;;;;;4.57;2.13;;;10.00;66.60;;;;;;5075556;28;20040;-68
2023/12/28 08:21:22;;;;;;;9.18;3.00;;;10.00;69.10;;;;;;5075516;28;20103;-68
2023/12/28 08:23:47;;;;;;;10.93;2.83;;;10.00;65.90;;;;;;5075595;28;20048;-68
2023/12/28 08:26:13;;;;;;;7.85;2.95;;;10.00;92.90;;;;;;5075581;28;20029;-68
2023/12/28 08:28:38;;;;;;;7.50;2.50;;;10.10;94.50;;;;;;5075286;28;20028;-68
2023/12/28 08:31:04;;;;;;;8.35;2.55;;;10.00;92.70;;;;;;5075199;28;20090;-68
2023/12/28 08:33:30;;;;;;;8.85;2.42;;;10.10;93.30;;;;;;5074891;28;20044;-68
2023/12/28 08:35:55;;;;;;;7.53;2.67;;;10.10;92.70;;;;;;5075238;28;20034;-68
2023/12/28 08:38:21;;;;;;;7.97;2.80;;;10.10;67.70;;;;;;5075226;28;20504;-68
2023/12/28 08:40:46;;;;;;;4.90;2.30;;;10.20;92.90;;;;;;5075125;28;20063;-67
2023/12/28 08:43:12;;;;;;;8.13;2.35;;;10.30;93.00;;;;;;5075147;28;20035;-68
2023/12/28 08:45:38;;;;;;;14.60;2.83;;;10.40;90.50;;;;;;5075163;28;20480;-67
2023/12/28 08:48:04;;;;;;;9.60;2.63;;;10.50;91.70;;;;;;5074828;28;20036;-68
2023/12/28 08:50:30;;;;;;;6.25;2.05;;;10.50;84.10;;;;;;5074925;28;20119;-68
2023/12/28 08:52:56;;;;;;;7.10;2.05;;;10.60;58.00;;;;;;5074742;28;20083;-67
2023/12/28 08:55:22;;;;;;;7.35;2.75;;;10.80;54.30;;;;;;5074354;28;20394;-68
2023/12/28 08:57:47;;;;;;;8.88;2.33;;;11.40;54.00;;;;;;5074921;28;20024;-67
2023/12/28 09:00:14;;;;;;;6.50;2.03;;;11.60;64.10;;;;;;5074792;28;20074;-67
2023/12/28 09:02:40;;;;;;;5.85;2.42;;;11.70;36.20;;;;;;5074681;28;20111;-68
2023/12/28 09:05:06;;;;;;;9.75;2.40;;;11.80;30.00;;;;;;5074718;28;20078;-67
2023/12/28 09:07:32;;;;;;;7.00;2.20;;;11.60;35.50;;;;;;5074037;28;20050;-68
2023/12/28 09:09:58;;;;;;;9.77;2.45;;;11.50;38.70;;;;;;5074118;28;20038;-68
2023/12/28 09:12:24;;;;;;;10.88;2.40;;;11.40;36.70;;;;;;5074442;28;20032;-69
2023/12/28 09:14:52;;;;;;;11.15;3.17;;;11.30;64.10;;;;;;5074149;28;20032;-68
2023/12/28 09:17:21;;;;;;;8.18;2.03;;;11.30;74.80;;;;;;5074254;28;20028;-68
2023/12/28 09:19:46;;;;;;;7.82;2.15;;;11.10;76.70;;;;;;5074278;28;20032;-67
2023/12/28 09:22:12;;;;;;;12.23;2.85;;;11.10;72.70;;;;;;5054220;28;20025;-67
2023/12/28 09:24:37;;;;;;;13.10;3.05;;;11.10;61.90;;;;;;5054269;28;20115;-67
2023/12/28 09:27:03;;;;;;;11.27;2.70;;;11.10;78.20;;;;;;5054171;28;20150;-67
2023/12/28 09:29:28;;;;;;;12.02;2.53;;;11.10;63.90;;;;;;5054149;28;20368;-67
2023/12/28 09:31:54;;;;;;;10.45;2.67;;;11.10;57.00;;;;;;5053990;28;20029;-67
2023/12/28 09:34:19;;;;;;;12.82;2.72;;;11.10;67.70;;;;;;5053418;28;20052;-67
2023/12/28 09:36:45;;;;;;;11.95;2.92;;;11.20;69.50;;;;;;5053861;28;20033;-67
2023/12/28 09:39:11;;;;;;;10.65;2.70;;;11.20;58.10;;;;;;5053769;28;20025;-68
2023/12/28 09:41:42;;;;;;;8.77;2.47;;;11.20;85.60;;;;;;5053870;28;20090;-67
2023/12/28 09:44:11;;;;;;;14.65;3.17;;;11.10;69.00;;;;;;5053325;28;20029;-68
2023/12/28 09:46:38;;;;;;;13.25;3.13;;;11.10;99.90;;;;;;5053960;28;20029;-67
2023/12/28 09:49:04;;;;;;;13.60;2.80;;;11.10;73.80;;;;;;5053271;28;20494;-67
2023/12/28 09:51:30;;;;;;;10.75;3.45;;;11.20;8.10;;;;;;5053265;28;20116;-67
2023/12/28 09:53:56;;;;;;;11.15;2.35;;;11.20;2.80;;;;;;5053562;28;20025;-66
2023/12/28 09:56:23;;;;;;;12.63;3.10;;;11.20;10.70;;;;;;5053526;28;20028;-66
2023/12/28 09:58:50;;;;;;;9.30;2.53;;;11.20;6.20;;;;;;5053628;28;20429;-66
2023/12/28 10:01:17;;;;;;;15.80;3.45;;;11.20;22.20;;;;;;5053422;28;20031;-67
2023/12/28 10:03:43;;;;;;;8.05;2.38;;;11.30;17.50;;;;;;5053172;28;20039;-65
2023/12/28 10:06:09;;;;;;;12.68;2.70;;;11.30;17.10;;;;;;5050688;28;20026;-67
2023/12/28 10:08:35;;;;;;;11.15;2.65;;;11.20;20.30;;;;;;5052181;28;20041;-67
2023/12/28 10:11:02;;;;;;;12.82;3.42;;;11.30;17.20;;;;;;5052983;28;20414;-68
2023/12/28 10:13:28;;;;;;;10.57;2.85;;;11.20;17.70;;;;;;5052876;28;20391;-68
2023/12/28 10:15:57;;;;;;;8.52;2.92;;;11.30;26.30;;;;;;5053483;28;20036;-68
2023/12/28 10:18:23;;;;;;;7.53;2.53;;;11.30;25.20;;;;;;5053322;28;20033;-68
2023/12/28 10:20:51;;;;;;;9.85;2.80;;;11.30;1.00;;;;;;5052870;28;20032;-68
2023/12/28 10:23:18;;;;;;;10.35;2.58;;;11.30;1.00;;;;;;5053130;28;20029;-68
2023/12/28 10:25:44;;;;;;;15.25;3.15;;;11.30;1.00;;;;;;5053217;28;20025;-67
2023/12/28 10:28:12;;;;;;;16.10;3.63;;;11.30;1.00;;;;;;5053199;28;20029;-67
2023/12/28 10:30:38;;;;;;;18.38;3.20;;;11.30;1.00;;;;;;5052831;28;20057;-67
2023/12/28 10:33:06;;;;;;;13.75;2.72;;;11.30;5.50;;;;;;5052941;28;20068;-66
2023/12/28 10:35:32;;;;;;;11.45;3.03;;;11.30;5.10;;;;;;5052654;28;20072;-66
2023/12/28 10:38:00;;;;;;;16.48;2.80;;;11.40;37.00;;;;;;5052722;28;20021;-67
2023/12/28 10:40:26;;;;;;;15.20;3.08;;;11.40;45.20;;;;;;5052943;28;20021;-66
2023/12/28 10:42:57;;;;;;;12.88;3.45;;;11.30;44.10;;;;;;5053098;28;20064;-67
2023/12/28 10:45:25;;;;;;;12.20;2.85;;;11.30;48.30;;;;;;5052852;28;20398;-68
2023/12/28 10:48:10;;;;;;;10.70;3.00;;;11.30;50.50;;;;;;5052956;28;20109;-67
2023/12/28 10:50:41;;;;;;;11.25;2.92;;;11.40;46.10;;;;;;5052938;28;20036;-66
2023/12/28 10:53:18;;;;;;;11.30;3.10;;;11.40;24.80;;;;;;5052930;28;20040;-67
2023/12/28 10:55:53;;;;;;;14.15;2.80;;;11.30;23.70;;;;;;5053792;28;20036;-67
2023/12/28 10:58:30;;;;;;;14.63;3.38;;;11.40;28.80;;;;;;5056870;28;20021;-67
2023/12/28 11:01:01;;;;;;;9.27;2.45;;;11.30;26.80;;;;;;5056621;28;20495;-69
2023/12/28 11:03:35;;;;;;;9.52;2.72;;;11.30;25.70;;;;;;5056735;28;20090;-68
2023/12/28 11:06:04;;;;;;;12.90;2.90;;;11.30;28.80;;;;;;5056802;28;20025;-68
2023/12/28 11:08:32;;;;;;;12.30;2.58;;;11.30;29.60;;;;;;5056766;28;20033;-68
2023/12/28 11:11:01;;;;;;;12.80;3.30;;;11.30;34.30;;;;;;5056579;28;20231;-67
2023/12/28 11:13:30;;;;;;;13.13;2.88;;;11.30;31.10;;;;;;5056536;28;20052;-67
2023/12/28 11:15:56;;;;;;;15.75;2.88;;;11.30;32.30;;;;;;5056209;28;20025;-69
2023/12/28 11:18:23;;;;;;;12.90;3.03;;;11.30;31.00;;;;;;5056588;28;20024;-67
2023/12/28 11:20:50;;;;;;;11.07;2.85;;;11.40;18.20;;;;;;5056597;28;20139;-67
2023/12/28 11:23:16;;;;;;;10.07;2.70;;;11.40;26.20;;;;;;5056315;28;20029;-68
2023/12/28 11:25:42;;;;;;;8.00;2.45;;;11.40;44.20;;;;;;5056528;28;20493;-69
2023/12/28 11:28:11;;;;;;;9.82;2.33;;;11.40;51.90;;;;;;5056484;28;20035;-66
2023/12/28 11:30:38;;;;;;;8.40;2.47;;;11.40;36.10;;;;;;5056298;28;20033;-67
2023/12/28 11:33:05;;;;;;;11.63;2.45;;;11.50;44.20;;;;;;5056086;28;20483;-68
2023/12/28 11:35:36;;;;;;;10.77;2.10;;;11.50;44.20;;;;;;5055762;28;20041;-67
2023/12/28 11:38:06;;;;;;;10.32;2.67;;;11.40;24.70;;;;;;5055990;28;20063;-70
2023/12/28 11:40:41;;;;;;;7.85;2.22;;;11.50;46.70;;;;;;5056041;28;20033;-69
2023/12/28 11:43:18;;;;;;;10.95;2.85;;;11.50;42.70;;;;;;5055597;28;20026;-69
2023/12/28 11:45:55;;;;;;;10.73;3.28;;;11.50;34.40;;;;;;5056045;28;20039;-67
2023/12/28 11:48:25;;;;;;;16.60;2.75;;;11.50;11.20;;;;;;5055896;28;20062;-67
2023/12/28 11:50:55;;;;;;;12.55;2.85;;;11.50;37.00;;;;;;5054621;28;20029;-67
2023/12/28 11:53:20;;;;;;;13.27;2.83;;;11.60;33.30;;;;;;5055952;28;20538;-67
2023/12/28 11:55:46;;;;;;;11.30;2.70;;;11.60;35.50;;;;;;5055592;28;20162;-67
2023/12/28 11:58:12;;;;;;;9.30;2.60;;;11.60;34.70;;;;;;5055902;28;20479;-67
2023/12/28 12:00:37;;;;;;;14.35;3.10;;;11.60;41.20;;;;;;5056013;28;20029;-67
2023/12/28 12:03:03;;;;;;;6.93;2.30;;;11.60;43.30;;;;;;5055689;28;20526;-67
2023/12/28 12:05:29;;;;;;;9.80;2.20;;;11.70;47.30;;;;;;5055680;28;20036;-67
2023/12/28 12:07:54;;;;;;;9.43;2.05;;;11.70;37.20;;;;;;5055319;28;20068;-69
2023/12/28 12:10:21;;;;;;;13.95;2.67;;;11.70;31.10;;;;;;5055559;28;20056;-68
2023/12/28 12:12:47;;;;;;;9.52;2.58;;;11.70;36.50;;;;;;5055360;28;20119;-68
2023/12/28 12:15:13;;;;;;;11.52;2.35;;;11.80;24.80;;;;;;5055357;28;20120;-69
2023/12/28 12:17:39;;;;;;;6.75;2.22;;;11.80;22.40;;;;;;5055193;28;20394;-69
2023/12/28 12:20:05;;;;;;;14.70;3.05;;;11.70;22.30;;;;;;5055510;28;20032;-69
2023/12/28 12:22:32;;;;;;;9.07;2.10;;;11.80;23.00;;;;;;5054989;28;20031;-68
2023/12/28 12:25:03;;;;;;;13.75;2.47;;;11.80;26.00;;;;;;5055314;28;20461;-69
2023/12/28 12:27:29;;;;;;;8.20;2.55;;;11.80;8.20;;;;;;5055040;28;20033;-69
2023/12/28 12:29:55;;;;;;;8.75;2.63;;;11.80;8.80;;;;;;5054922;28;20556;-69
2023/12/28 12:32:21;;;;;;;10.02;2.60;;;11.80;10.50;;;;;;5054793;28;20021;-69
2023/12/28 12:34:47;;;;;;;9.07;2.78;;;11.80;7.30;;;;;;5054905;28;20048;-67
2023/12/28 12:37:13;;;;;;;9.02;2.20;;;11.80;12.30;;;;;;5055162;28;20101;-69
2023/12/28 12:39:38;;;;;;;11.98;2.45;;;11.80;1.00;;;;;;5055064;28;20025;-68
2023/12/28 12:42:04;;;;;;;11.00;2.63;;;11.90;1.00;;;;;;5054872;28;20029;-68
2023/12/28 12:44:30;;;;;;;11.30;2.42;;;11.90;9.50;;;;;;5054855;28;20035;-68
2023/12/28 12:46:58;;;;;;;9.90;2.40;;;11.90;10.00;;;;;;5055044;28;20043;-68
2023/12/28 12:49:25;;;;;;;9.07;1.90;;;11.90;16.50;;;;;;5054960;28;20021;-68